createdAt,value
2018-05-25T00:00:43.959Z,21.80
2018-05-25T00:03:12.202Z,21.80
2018-05-25T00:05:40.455Z,21.80
2018-05-25T00:08:08.693Z,21.90
2018-05-25T00:10:37.720Z,22.00
2018-05-25T00:13:05.980Z,22.00
2018-05-25T00:15:34.399Z,21.90
2018-05-25T00:18:02.666Z,21.60
2018-05-25T00:20:31.681Z,21.40
2018-05-25T00:22:59.947Z,21.20
2018-05-25T00:25:28.970Z,21.50
2018-05-25T00:27:57.226Z,21.40
2018-05-25T00:30:25.499Z,21.10
2018-05-25T00:32:54.546Z,21.70
2018-05-25T00:35:22.812Z,21.60
2018-05-25T00:37:51.084Z,21.60
2018-05-25T00:40:19.349Z,21.60
2018-05-25T00:42:47.603Z,21.70
2018-05-25T00:45:16.077Z,21.60
2018-05-25T00:47:44.329Z,21.60
2018-05-25T00:50:12.598Z,21.50
2018-05-25T00:52:40.846Z,21.40
2018-05-25T00:55:20.991Z,21.30
2018-05-25T00:57:50.013Z,21.50
2018-05-25T01:00:18.322Z,21.40
2018-05-25T01:02:46.577Z,21.40
2018-05-25T01:05:14.852Z,21.40
2018-05-25T01:07:43.104Z,21.40
2018-05-25T01:10:12.147Z,21.40
2018-05-25T01:12:40.394Z,21.40
2018-05-25T01:15:08.818Z,21.50
2018-05-25T01:17:37.061Z,21.50
2018-05-25T01:20:06.111Z,21.30
2018-05-25T01:22:34.343Z,21.30
2018-05-25T01:25:02.670Z,21.40
2018-05-25T01:27:31.025Z,21.30
2018-05-25T01:29:59.271Z,21.30
2018-05-25T01:32:28.388Z,21.50
2018-05-25T01:34:57.411Z,21.50
2018-05-25T01:37:25.691Z,21.40
2018-05-25T01:39:53.923Z,21.40
2018-05-25T01:42:22.984Z,21.30
2018-05-25T01:44:51.248Z,21.30
2018-05-25T01:47:19.535Z,21.30
2018-05-25T01:49:48.000Z,21.20
2018-05-25T01:52:16.260Z,21.20
2018-05-25T01:54:45.296Z,21.10
2018-05-25T01:57:13.545Z,21.10
2018-05-25T01:59:42.606Z,21.00
2018-05-25T02:02:10.848Z,21.00
2018-05-25T02:04:39.137Z,21.00
2018-05-25T02:07:07.384Z,21.00
2018-05-25T02:09:36.465Z,21.00
2018-05-25T02:12:04.717Z,20.70
2018-05-25T02:14:32.960Z,21.00
2018-05-25T02:17:01.286Z,20.90
2018-05-25T02:19:29.564Z,21.00
2018-05-25T02:21:57.929Z,20.90
2018-05-25T02:24:26.229Z,20.80
2018-05-25T02:26:54.505Z,20.90
2018-05-25T02:29:22.755Z,20.90
2018-05-25T02:31:51.039Z,21.00
2018-05-25T02:34:19.313Z,21.10
2018-05-25T02:36:47.583Z,21.10
2018-05-25T02:39:15.854Z,21.20
2018-05-25T02:41:44.925Z,21.30
2018-05-25T02:44:13.168Z,21.20
2018-05-25T02:46:41.409Z,21.00
2018-05-25T02:49:10.440Z,20.60
2018-05-25T02:51:38.732Z,20.80
2018-05-25T02:54:07.007Z,20.70
2018-05-25T02:56:35.274Z,20.80
2018-05-25T02:59:03.546Z,20.80
2018-05-25T03:01:31.828Z,21.00
2018-05-25T03:04:00.124Z,20.90
2018-05-25T03:06:28.403Z,21.00
2018-05-25T03:08:56.656Z,20.70
2018-05-25T03:11:25.687Z,21.20
2018-05-25T03:13:53.936Z,21.20
2018-05-25T03:16:22.184Z,21.20
2018-05-25T03:18:50.831Z,21.20
2018-05-25T03:21:19.084Z,21.30
2018-05-25T03:23:47.840Z,21.10
2018-05-25T03:26:16.593Z,21.00
2018-05-25T03:28:44.823Z,20.60
2018-05-25T03:31:13.838Z,21.10
2018-05-25T03:33:42.339Z,21.10
2018-05-25T03:36:10.574Z,21.10
2018-05-25T03:38:38.824Z,21.10
2018-05-25T03:41:07.080Z,21.10
2018-05-25T03:43:35.334Z,21.00
2018-05-25T03:46:04.367Z,20.90
2018-05-25T03:48:32.619Z,21.10
2018-05-25T03:51:02.073Z,20.90
2018-05-25T03:53:30.314Z,20.70
2018-05-25T03:55:58.576Z,20.90
2018-05-25T03:58:39.688Z,20.80
2018-05-25T04:01:19.845Z,20.80
2018-05-25T04:03:49.743Z,20.70
2018-05-25T04:06:18.011Z,20.80
2018-05-25T04:08:47.360Z,20.80
2018-05-25T04:11:15.706Z,20.70
2018-05-25T04:13:44.726Z,20.90
2018-05-25T04:16:13.010Z,20.80
2018-05-25T04:18:41.385Z,20.90
2018-05-25T04:21:09.665Z,20.60
2018-05-25T04:23:37.978Z,20.80
2018-05-25T04:26:06.322Z,20.70
2018-05-25T04:28:34.569Z,20.60
2018-05-25T04:31:02.832Z,20.50
2018-05-25T04:33:31.080Z,20.60
2018-05-25T04:36:00.119Z,20.60
2018-05-25T04:38:28.359Z,20.50
2018-05-25T04:40:56.609Z,20.60
2018-05-25T04:43:26.046Z,20.70
2018-05-25T04:45:54.305Z,20.60
2018-05-25T04:48:22.677Z,20.70
2018-05-25T04:50:51.732Z,20.70
2018-05-25T04:53:19.996Z,20.60
2018-05-25T04:55:49.269Z,20.70
2018-05-25T04:58:18.472Z,20.70
2018-05-25T05:00:46.720Z,20.70
2018-05-25T05:03:14.972Z,20.90
2018-05-25T05:05:43.252Z,20.70
2018-05-25T05:08:11.678Z,20.70
2018-05-25T05:10:40.692Z,20.60
2018-05-25T05:13:08.981Z,20.60
2018-05-25T05:15:37.571Z,20.70
2018-05-25T05:18:05.816Z,20.60
2018-05-25T05:20:34.952Z,20.90
2018-05-25T05:23:03.226Z,20.70
2018-05-25T05:25:31.456Z,20.80
2018-05-25T05:27:59.801Z,20.90
2018-05-25T05:30:28.074Z,20.90
2018-05-25T05:32:56.320Z,21.00
2018-05-25T05:35:25.357Z,20.90
2018-05-25T05:37:53.635Z,21.00
2018-05-25T05:40:21.889Z,21.00
2018-05-25T05:42:51.402Z,21.20
2018-05-25T05:45:20.411Z,21.10
2018-05-25T05:47:48.696Z,21.10
2018-05-25T05:50:17.125Z,21.20
2018-05-25T05:52:45.598Z,21.30
2018-05-25T05:55:15.833Z,21.40
2018-05-25T05:57:45.837Z,21.40
2018-05-25T06:00:14.103Z,21.50
2018-05-25T06:02:42.423Z,21.30
2018-05-25T06:05:10.688Z,21.40
2018-05-25T06:07:38.948Z,21.40
2018-05-25T06:10:07.225Z,21.20
2018-05-25T06:12:35.514Z,21.20
2018-05-25T06:15:03.899Z,21.30
2018-05-25T06:17:32.251Z,21.50
2018-05-25T06:20:00.645Z,21.60
2018-05-25T06:22:29.279Z,21.60
2018-05-25T06:24:57.598Z,21.60
2018-05-25T06:27:25.862Z,21.60
2018-05-25T06:29:54.217Z,21.60
2018-05-25T06:32:22.623Z,21.70
2018-05-25T06:34:50.972Z,21.80
2018-05-25T06:37:19.393Z,22.00
2018-05-25T06:39:48.217Z,22.10
2018-05-25T06:42:16.512Z,22.30
2018-05-25T06:44:44.844Z,22.20
2018-05-25T06:47:13.183Z,22.20
2018-05-25T06:49:41.708Z,22.20
2018-05-25T06:52:10.030Z,22.10
2018-05-25T06:54:39.544Z,22.10
2018-05-25T06:57:08.833Z,22.00
2018-05-25T06:59:37.223Z,22.00
2018-05-25T07:02:05.648Z,22.10
2018-05-25T07:04:33.932Z,22.10
2018-05-25T07:07:03.758Z,22.20
2018-05-25T07:09:32.177Z,22.20
2018-05-25T07:12:00.514Z,22.30
2018-05-25T07:14:29.619Z,22.40
2018-05-25T07:16:58.394Z,22.40
2018-05-25T07:19:26.713Z,22.40
2018-05-25T07:21:56.324Z,22.70
2018-05-25T07:24:24.652Z,22.70
2018-05-25T07:26:53.090Z,22.70
2018-05-25T07:29:21.295Z,22.70
2018-05-25T07:31:49.558Z,22.80
2018-05-25T07:34:18.595Z,23.00
2018-05-25T13:05:22.328Z,22.10
2018-05-25T13:07:50.636Z,22.40
2018-05-25T13:10:19.684Z,23.80
2018-05-25T13:12:47.959Z,23.70
2018-05-25T13:15:16.234Z,24.30
2018-05-25T13:17:44.561Z,24.60
2018-05-25T13:20:13.582Z,25.30
2018-05-25T13:22:41.895Z,25.30
2018-05-25T13:25:10.178Z,25.50
2018-05-25T13:27:38.489Z,25.60
2018-05-25T13:30:06.754Z,25.60
2018-05-25T13:32:34.987Z,26.10
2018-05-25T13:35:03.991Z,26.20
2018-05-25T13:37:32.273Z,26.10
2018-05-25T13:40:01.442Z,26.30
2018-05-25T13:42:29.740Z,26.30
2018-05-25T13:44:58.765Z,26.20
2018-05-25T13:47:27.059Z,26.20
2018-05-25T13:49:55.315Z,26.30
2018-05-25T13:52:23.596Z,26.30
2018-05-25T13:54:51.845Z,26.30
2018-05-25T13:57:20.881Z,26.50
2018-05-25T13:59:49.113Z,26.50
2018-05-25T14:02:18.248Z,26.40
2018-05-25T14:04:46.542Z,26.40
2018-05-25T14:07:15.016Z,26.40
2018-05-25T14:09:44.308Z,26.30
2018-05-25T14:12:13.333Z,26.30
2018-05-25T14:14:41.621Z,26.30
2018-05-25T14:17:09.843Z,26.30
2018-05-25T14:19:38.933Z,26.40
2018-05-25T14:22:07.182Z,26.40
2018-05-25T14:24:35.443Z,26.50
2018-05-25T14:27:03.727Z,26.60
2018-05-25T14:29:31.988Z,26.70
2018-05-25T14:32:00.996Z,26.80
2018-05-25T14:34:29.255Z,26.80
2018-05-25T14:36:58.308Z,27.00
2018-05-25T14:39:26.587Z,26.90
2018-05-25T14:41:54.846Z,27.00
2018-05-25T14:44:23.140Z,27.00
2018-05-25T14:46:51.432Z,27.00
2018-05-25T14:49:19.730Z,26.90
2018-05-25T14:51:47.988Z,27.00
2018-05-25T14:54:17.773Z,27.10
2018-05-25T14:56:46.038Z,27.10
2018-05-25T14:59:14.424Z,27.20
2018-05-25T15:01:42.721Z,27.10
2018-05-25T15:04:10.975Z,27.10
2018-05-25T15:06:39.285Z,27.10
2018-05-25T15:09:08.300Z,27.00
2018-05-25T15:11:37.591Z,27.00
2018-05-25T15:14:06.037Z,27.00
2018-05-25T15:16:34.308Z,27.10
2018-05-25T15:19:03.315Z,27.30
2018-05-25T15:21:31.597Z,27.30
2018-05-25T15:24:00.610Z,27.40
2018-05-25T15:26:29.653Z,27.40
2018-05-25T15:28:57.997Z,27.40
2018-05-25T15:31:26.245Z,27.40
2018-05-25T15:33:55.264Z,27.40
2018-05-25T15:36:24.289Z,27.40
2018-05-25T15:38:52.545Z,27.40
2018-05-25T15:41:21.618Z,27.30
2018-05-25T15:43:49.929Z,27.30
2018-05-25T15:46:18.993Z,27.30
2018-05-25T15:48:47.184Z,27.30
2018-05-25T15:51:16.231Z,27.30
2018-05-25T15:53:44.492Z,27.30
2018-05-25T15:56:12.752Z,27.30
2018-05-25T15:58:41.831Z,27.10
2018-05-25T16:01:11.577Z,27.00
2018-05-25T16:03:40.616Z,27.00
2018-05-25T16:06:08.884Z,27.10
2018-05-25T16:08:37.185Z,27.10
2018-05-25T16:11:06.135Z,27.10
2018-05-25T16:13:35.175Z,27.20
2018-05-25T16:16:03.441Z,27.10
2018-05-25T16:18:31.764Z,27.10
2018-05-25T16:21:00.017Z,27.20
2018-05-25T16:23:28.333Z,27.30
2018-05-25T16:25:58.099Z,27.20
2018-05-25T16:28:26.344Z,27.20
2018-05-25T16:30:55.352Z,27.30
2018-05-25T16:33:23.620Z,27.30
2018-05-25T16:35:52.641Z,27.10
2018-05-25T16:38:20.903Z,27.10
2018-05-25T16:40:49.886Z,27.00
2018-05-25T16:43:19.113Z,27.00
2018-05-25T16:45:47.352Z,27.00
2018-05-25T16:48:15.603Z,27.00
2018-05-25T16:50:44.124Z,27.00
2018-05-25T16:53:12.344Z,27.10
2018-05-25T16:55:40.582Z,27.00
2018-05-25T16:58:09.615Z,26.90
2018-05-25T17:00:38.628Z,27.00
2018-05-25T17:03:06.890Z,27.00
2018-05-25T17:05:35.146Z,27.10
2018-05-25T17:08:04.314Z,27.30
2018-05-25T17:10:32.564Z,27.20
2018-05-25T17:13:00.792Z,27.30
2018-05-25T17:15:29.124Z,27.30
2018-05-25T17:17:57.361Z,27.20
2018-05-25T17:20:26.362Z,27.10
2018-05-25T17:22:55.407Z,27.10
2018-05-25T17:25:23.657Z,27.10
2018-05-25T17:27:52.685Z,27.20
2018-05-25T17:30:20.928Z,27.20
2018-05-25T17:32:49.925Z,27.30
2018-05-25T17:35:19.188Z,27.20
2018-05-25T17:37:47.429Z,27.20
2018-05-25T17:40:15.659Z,27.20
2018-05-25T17:42:43.948Z,27.10
2018-05-25T17:45:12.181Z,27.20
2018-05-25T17:47:40.421Z,27.20
2018-05-25T17:50:08.677Z,27.10
2018-05-25T17:52:36.917Z,27.00
2018-05-25T17:55:05.173Z,27.00
2018-05-25T17:57:34.199Z,27.00
2018-05-25T18:00:02.445Z,27.00
2018-05-25T18:02:31.784Z,27.00
2018-05-25T18:05:00.033Z,27.00
2018-05-25T18:07:29.066Z,26.90
2018-05-25T18:09:57.294Z,26.90
2018-05-25T18:12:25.531Z,26.80
2018-05-25T18:14:53.771Z,26.90
2018-05-25T18:17:22.867Z,26.80
2018-05-25T18:19:51.045Z,26.80
2018-05-25T18:22:20.049Z,26.70
2018-05-25T18:24:49.084Z,26.70
2018-05-25T18:27:17.350Z,26.70
2018-05-25T18:29:46.350Z,26.80
2018-05-25T18:32:14.945Z,26.80
2018-05-25T18:34:43.172Z,26.80
2018-05-25T18:37:12.218Z,26.80
2018-05-25T18:39:40.826Z,26.80
2018-05-25T18:42:09.069Z,26.80
2018-05-25T18:44:37.320Z,26.80
2018-05-25T18:47:06.352Z,26.80
2018-05-25T18:49:34.636Z,26.80
2018-05-25T18:52:03.615Z,26.70
2018-05-25T18:54:33.577Z,26.80
2018-05-25T18:57:01.830Z,26.80
2018-05-25T18:59:30.079Z,26.70
2018-05-25T19:01:59.697Z,26.50
2018-05-25T19:04:28.713Z,26.50
2018-05-25T19:06:56.987Z,26.50
2018-05-25T19:09:26.057Z,26.50
2018-05-25T19:11:54.341Z,26.50
2018-05-25T19:14:22.776Z,26.50
2018-05-25T19:16:51.103Z,26.50
2018-05-25T19:19:19.448Z,26.40
2018-05-25T19:21:48.357Z,26.40
2018-05-25T19:24:16.637Z,26.50
2018-05-25T19:26:44.905Z,26.50
2018-05-25T19:29:13.227Z,26.40
2018-05-25T19:31:44.209Z,26.40
2018-05-25T19:34:12.583Z,26.50
2018-05-25T19:36:42.096Z,26.30
2018-05-25T19:39:10.385Z,26.30
2018-05-25T19:41:38.695Z,26.30
2018-05-25T19:44:06.979Z,26.30
2018-05-25T19:46:35.973Z,26.30
2018-05-25T19:49:04.247Z,26.20
2018-05-25T19:51:32.483Z,26.30
2018-05-25T19:54:01.511Z,26.30
2018-05-25T19:56:29.789Z,26.30
2018-05-25T19:58:58.053Z,26.30
2018-05-25T20:01:27.216Z,26.30
2018-05-25T20:03:57.132Z,26.20
2018-05-25T20:06:25.297Z,26.20
2018-05-25T20:08:53.571Z,26.10
2018-05-25T20:11:21.883Z,26.10
2018-05-25T20:13:50.211Z,26.00
2018-05-25T20:16:18.527Z,26.00
2018-05-25T20:18:46.823Z,26.40
2018-05-25T20:21:15.049Z,26.30
2018-05-25T20:23:43.313Z,26.20
2018-05-25T20:26:11.922Z,26.10
2018-05-25T20:28:40.262Z,26.00
2018-05-25T20:31:09.337Z,25.90
2018-05-25T20:33:37.652Z,25.80
2018-05-25T20:36:07.008Z,25.80
2018-05-25T20:38:35.245Z,25.70
2018-05-25T20:41:03.479Z,25.70
2018-05-25T20:43:31.744Z,25.60
2018-05-25T20:45:59.972Z,25.60
2018-05-25T20:48:29.025Z,25.60
2018-05-25T20:50:57.300Z,25.50
2018-05-25T20:53:25.546Z,25.50
2018-05-25T20:55:54.567Z,25.40
2018-05-25T20:58:22.827Z,25.30
2018-05-25T21:00:51.881Z,25.10
2018-05-25T21:03:20.143Z,25.10
2018-05-25T21:05:48.525Z,25.10
2018-05-25T21:08:16.827Z,25.00
2018-05-25T21:10:45.263Z,24.90
2018-05-25T21:13:13.553Z,24.90
2018-05-25T21:15:41.879Z,24.90
2018-05-25T21:18:10.139Z,24.90
2018-05-25T21:20:38.405Z,24.90
2018-05-25T21:23:06.697Z,24.80
2018-05-25T21:25:34.913Z,24.80
2018-05-25T21:28:03.942Z,24.80
2018-05-25T21:30:32.193Z,24.70
2018-05-25T21:33:01.195Z,24.70
2018-05-25T21:35:30.221Z,24.70
2018-05-25T21:37:58.488Z,24.70
2018-05-25T21:40:26.763Z,24.70
2018-05-25T21:42:55.884Z,24.60
2018-05-25T21:45:24.372Z,24.60
2018-05-25T21:47:52.607Z,24.60
2018-05-25T21:50:20.872Z,24.60
2018-05-25T21:52:49.125Z,24.60
2018-05-25T21:55:17.394Z,24.60
2018-05-25T21:57:45.692Z,24.50
2018-05-25T22:00:13.979Z,24.50
2018-05-25T22:02:42.220Z,24.50
2018-05-25T22:05:10.481Z,24.50
2018-05-25T22:07:39.508Z,24.60
2018-05-25T22:10:07.786Z,24.50
2018-05-25T22:12:36.041Z,24.60
2018-05-25T22:15:05.056Z,24.50
2018-05-25T22:17:33.449Z,24.60
2018-05-25T22:20:01.737Z,24.50
2018-05-25T22:22:29.997Z,24.50
2018-05-25T22:24:59.236Z,24.40
2018-05-25T22:27:27.488Z,24.40
2018-05-25T22:29:55.747Z,24.30
2018-05-25T22:32:24.777Z,24.20
2018-05-25T22:34:53.100Z,24.10
2018-05-25T22:37:21.376Z,24.10
2018-05-25T22:39:50.437Z,24.10
2018-05-25T22:42:30.672Z,24.10
2018-05-25T22:45:17.123Z,24.10
2018-05-25T22:48:03.284Z,24.00
2018-05-25T22:50:49.575Z,23.90
2018-05-25T22:53:29.835Z,23.70
2018-05-25T22:55:58.210Z,23.70
2018-05-25T22:58:26.455Z,23.70
2018-05-25T23:00:55.658Z,23.70
2018-05-25T23:03:23.921Z,23.80
2018-05-25T23:05:52.200Z,23.90
2018-05-25T23:08:21.227Z,23.90
2018-05-25T23:10:49.481Z,23.90
2018-05-25T23:13:17.725Z,23.90
2018-05-25T23:15:46.021Z,23.80
2018-05-25T23:18:14.305Z,23.80
2018-05-25T23:20:43.332Z,23.70
2018-05-25T23:23:12.359Z,23.70
2018-05-25T23:25:40.651Z,23.60
2018-05-25T23:28:09.101Z,23.70
2018-05-25T23:30:37.405Z,23.60
2018-05-25T23:33:05.689Z,23.60
2018-05-25T23:35:33.942Z,23.70
2018-05-25T23:38:02.229Z,23.60
2018-05-25T23:40:30.544Z,23.50
2018-05-25T23:42:58.813Z,23.40
2018-05-25T23:45:27.974Z,23.40
2018-05-25T23:47:57.018Z,23.30
2018-05-25T23:50:25.262Z,23.30
2018-05-25T23:52:53.536Z,23.30
2018-05-25T23:55:22.548Z,23.30
2018-05-25T23:57:50.824Z,23.30
